Terminal Aerodrome Forecast
Issued by NWS Greer, SC

Home | Current Version | Previous Version | Text Only | Print | Product List | Glossary On
Versions: 1 2 3 4 5 6 7 8 9 10 11 12 13 14 15 16 17 18 19 20 21 22 23 24 25 26
000
FTUS42 KGSP 181500 AAB
TAFGSP
TAF AMD
KGSP 181509Z 1815/1912 03006KT P6SM OVC007
      TEMPO 1815/1817 SCT007 OVC012
     FM181700 05005KT P6SM OVC012
     FM181900 06004KT P6SM BKN025
     FM182100 06003KT P6SM BKN045
     FM191100 04003KT P6SM BKN016=

USA.gov is the U.S. government's official web portal to all federal, state and local government web resources and services.